sensor_id;sensor_type;location;lat;lon;timestamp;P1;durP1;ratioP1;P2;durP2;ratioP2
21589;SDS011;10957;50.968;6.828;2023-06-22T01:00:08;1.50;;;1.50;;
21589;SDS011;10957;50.968;6.828;2023-06-22T01:05:16;2.10;;;1.90;;
21589;SDS011;10957;50.968;6.828;2023-06-22T01:15:32;2.22;;;2.13;;
21589;SDS011;10957;50.968;6.828;2023-06-22T01:20:37;1.90;;;1.80;;
21589;SDS011;10957;50.968;6.828;2023-06-22T01:25:47;1.98;;;1.88;;
21589;SDS011;10957;50.968;6.828;2023-06-22T01:31:00;1.80;;;1.70;;
21589;SDS011;10957;50.968;6.828;2023-06-22T01:36:06;1.92;;;1.83;;
21589;SDS011;10957;50.968;6.828;2023-06-22T01:41:09;1.58;;;1.58;;
21589;SDS011;10957;50.968;6.828;2023-06-22T01:46:11;1.60;;;1.60;;
21589;SDS011;10957;50.968;6.828;2023-06-22T01:51:13;1.75;;;1.65;;
21589;SDS011;10957;50.968;6.828;2023-06-22T01:56:17;13.07;;;2.67;;
21589;SDS011;10957;50.968;6.828;2023-06-22T02:01:27;2.00;;;1.90;;
21589;SDS011;10957;50.968;6.828;2023-06-22T02:06:36;1.70;;;1.60;;
21589;SDS011;10957;50.968;6.828;2023-06-22T02:11:40;1.98;;;1.88;;
21589;SDS011;10957;50.968;6.828;2023-06-22T02:16:43;2.53;;;2.33;;
21589;SDS011;10957;50.968;6.828;2023-06-22T02:21:45;1.67;;;1.58;;
21589;SDS011;10957;50.968;6.828;2023-06-22T02:26:47;2.13;;;2.03;;
21589;SDS011;10957;50.968;6.828;2023-06-22T02:31:48;1.70;;;1.60;;
21589;SDS011;10957;50.968;6.828;2023-06-22T02:36:50;1.98;;;1.88;;
21589;SDS011;10957;50.968;6.828;2023-06-22T02:41:53;1.83;;;1.73;;
21589;SDS011;10957;50.968;6.828;2023-06-22T02:46:57;2.40;;;2.00;;
21589;SDS011;10957;50.968;6.828;2023-06-22T02:51:58;1.95;;;1.85;;
21589;SDS011;10957;50.968;6.828;2023-06-22T02:57:00;1.88;;;1.77;;
21589;SDS011;10957;50.968;6.828;2023-06-22T03:02:04;3.42;;;3.13;;
21589;SDS011;10957;50.968;6.828;2023-06-22T03:07:07;2.25;;;2.03;;
21589;SDS011;10957;50.968;6.828;2023-06-22T03:12:08;1.80;;;1.73;;
21589;SDS011;10957;50.968;6.828;2023-06-22T03:17:25;2.78;;;2.58;;
21589;SDS011;10957;50.968;6.828;2023-06-22T03:22:26;2.40;;;2.22;;
21589;SDS011;10957;50.968;6.828;2023-06-22T03:27:27;2.00;;;1.80;;
21589;SDS011;10957;50.968;6.828;2023-06-22T03:32:28;1.70;;;1.65;;
21589;SDS011;10957;50.968;6.828;2023-06-22T03:37:30;2.03;;;1.92;;
21589;SDS011;10957;50.968;6.828;2023-06-22T03:42:31;1.63;;;1.58;;
21589;SDS011;10957;50.968;6.828;2023-06-22T03:47:34;3.25;;;3.05;;
21589;SDS011;10957;50.968;6.828;2023-06-22T03:52:35;1.70;;;1.60;;
21589;SDS011;10957;50.968;6.828;2023-06-22T03:57:36;2.33;;;2.22;;
21589;SDS011;10957;50.968;6.828;2023-06-22T04:02:38;2.70;;;2.60;;
21589;SDS011;10957;50.968;6.828;2023-06-22T04:07:39;2.08;;;1.98;;
21589;SDS011;10957;50.968;6.828;2023-06-22T04:12:40;2.00;;;1.90;;
21589;SDS011;10957;50.968;6.828;2023-06-22T04:17:42;2.05;;;1.95;;
21589;SDS011;10957;50.968;6.828;2023-06-22T04:22:43;3.50;;;2.72;;
21589;SDS011;10957;50.968;6.828;2023-06-22T04:27:46;1.90;;;1.80;;
21589;SDS011;10957;50.968;6.828;2023-06-22T04:32:47;1.70;;;1.60;;
21589;SDS011;10957;50.968;6.828;2023-06-22T04:37:58;1.60;;;1.60;;
21589;SDS011;10957;50.968;6.828;2023-06-22T04:42:59;1.58;;;1.50;;
21589;SDS011;10957;50.968;6.828;2023-06-22T04:48:03;1.55;;;1.50;;
21589;SDS011;10957;50.968;6.828;2023-06-22T04:53:05;2.88;;;2.20;;
21589;SDS011;10957;50.968;6.828;2023-06-22T04:58:08;2.17;;;2.08;;
21589;SDS011;10957;50.968;6.828;2023-06-22T05:03:09;20.88;;;2.20;;
21589;SDS011;10957;50.968;6.828;2023-06-22T05:08:11;1.98;;;1.88;;
21589;SDS011;10957;50.968;6.828;2023-06-22T05:13:13;2.42;;;2.22;;
21589;SDS011;10957;50.968;6.828;2023-06-22T05:18:15;2.15;;;1.95;;
21589;SDS011;10957;50.968;6.828;2023-06-22T05:23:16;2.08;;;1.98;;
21589;SDS011;10957;50.968;6.828;2023-06-22T05:28:17;2.42;;;2.33;;
21589;SDS011;10957;50.968;6.828;2023-06-22T05:33:23;1.83;;;1.73;;
21589;SDS011;10957;50.968;6.828;2023-06-22T05:38:24;1.67;;;1.58;;
21589;SDS011;10957;50.968;6.828;2023-06-22T05:43:26;1.38;;;1.38;;
21589;SDS011;10957;50.968;6.828;2023-06-22T05:48:27;1.63;;;1.60;;
21589;SDS011;10957;50.968;6.828;2023-06-22T05:53:29;1.70;;;1.60;;
21589;SDS011;10957;50.968;6.828;2023-06-22T05:58:30;1.98;;;1.88;;
21589;SDS011;10957;50.968;6.828;2023-06-22T06:03:31;1.58;;;1.50;;
21589;SDS011;10957;50.968;6.828;2023-06-22T06:08:33;2.10;;;2.00;;
21589;SDS011;10957;50.968;6.828;2023-06-22T06:13:35;3.25;;;1.88;;
21589;SDS011;10957;50.968;6.828;2023-06-22T06:18:36;2.80;;;2.60;;
21589;SDS011;10957;50.968;6.828;2023-06-22T06:23:38;1.95;;;1.85;;
21589;SDS011;10957;50.968;6.828;2023-06-22T06:28:39;2.38;;;2.17;;
21589;SDS011;10957;50.968;6.828;2023-06-22T06:33:41;2.00;;;1.90;;
21589;SDS011;10957;50.968;6.828;2023-06-22T06:38:43;2.00;;;1.90;;
21589;SDS011;10957;50.968;6.828;2023-06-22T06:43:44;1.70;;;1.60;;
21589;SDS011;10957;50.968;6.828;2023-06-22T06:48:45;2.13;;;2.03;;
21589;SDS011;10957;50.968;6.828;2023-06-22T06:53:47;6.97;;;2.25;;
21589;SDS011;10957;50.968;6.828;2023-06-22T06:58:49;2.58;;;2.38;;
21589;SDS011;10957;50.968;6.828;2023-06-22T07:03:51;1.40;;;1.40;;
21589;SDS011;10957;50.968;6.828;2023-06-22T07:08:54;2.00;;;1.90;;
21589;SDS011;10957;50.968;6.828;2023-06-22T07:13:56;2.65;;;2.22;;
21589;SDS011;10957;50.968;6.828;2023-06-22T07:18:57;6.20;;;2.25;;
21589;SDS011;10957;50.968;6.828;2023-06-22T07:23:59;2.42;;;2.20;;
21589;SDS011;10957;50.968;6.828;2023-06-22T07:29:00;2.30;;;2.20;;
21589;SDS011;10957;50.968;6.828;2023-06-22T07:34:01;3.03;;;2.67;;
21589;SDS011;10957;50.968;6.828;2023-06-22T07:39:03;2.17;;;2.08;;
21589;SDS011;10957;50.968;6.828;2023-06-22T07:44:05;3.55;;;2.80;;
21589;SDS011;10957;50.968;6.828;2023-06-22T07:49:07;2.45;;;2.25;;
21589;SDS011;10957;50.968;6.828;2023-06-22T07:54:09;2.72;;;2.53;;
21589;SDS011;10957;50.968;6.828;2023-06-22T07:59:10;2.20;;;2.10;;
21589;SDS011;10957;50.968;6.828;2023-06-22T08:04:11;2.53;;;2.42;;
21589;SDS011;10957;50.968;6.828;2023-06-22T08:09:13;2.60;;;2.40;;
21589;SDS011;10957;50.968;6.828;2023-06-22T08:14:14;2.60;;;2.42;;
21589;SDS011;10957;50.968;6.828;2023-06-22T08:19:15;4.30;;;3.45;;
21589;SDS011;10957;50.968;6.828;2023-06-22T08:24:17;2.92;;;2.72;;
21589;SDS011;10957;50.968;6.828;2023-06-22T08:29:18;3.30;;;3.10;;
21589;SDS011;10957;50.968;6.828;2023-06-22T08:34:19;2.30;;;2.13;;
21589;SDS011;10957;50.968;6.828;2023-06-22T08:39:22;4.40;;;3.00;;
21589;SDS011;10957;50.968;6.828;2023-06-22T08:44:23;2.63;;;2.42;;
21589;SDS011;10957;50.968;6.828;2023-06-22T08:49:24;3.63;;;2.72;;
21589;SDS011;10957;50.968;6.828;2023-06-22T08:54:25;5.45;;;3.05;;
21589;SDS011;10957;50.968;6.828;2023-06-22T08:59:27;2.42;;;2.22;;
21589;SDS011;10957;50.968;6.828;2023-06-22T09:04:28;2.33;;;2.22;;
21589;SDS011;10957;50.968;6.828;2023-06-22T09:09:30;4.60;;;2.28;;
21589;SDS011;10957;50.968;6.828;2023-06-22T09:14:31;1.80;;;1.70;;
21589;SDS011;10957;50.968;6.828;2023-06-22T09:19:32;2.58;;;2.40;;
21589;SDS011;10957;50.968;6.828;2023-06-22T09:24:34;2.65;;;2.45;;
21589;SDS011;10957;50.968;6.828;2023-06-22T09:29:35;2.45;;;2.35;;
21589;SDS011;10957;50.968;6.828;2023-06-22T09:34:36;2.78;;;2.53;;
21589;SDS011;10957;50.968;6.828;2023-06-22T09:39:38;6.75;;;2.80;;
21589;SDS011;10957;50.968;6.828;2023-06-22T09:44:39;2.78;;;2.58;;
21589;SDS011;10957;50.968;6.828;2023-06-22T09:49:40;2.75;;;2.55;;
21589;SDS011;10957;50.968;6.828;2023-06-22T09:54:41;1.95;;;1.85;;
21589;SDS011;10957;50.968;6.828;2023-06-22T09:59:43;2.17;;;2.00;;
21589;SDS011;10957;50.968;6.828;2023-06-22T10:04:44;2.10;;;2.00;;
21589;SDS011;10957;50.968;6.828;2023-06-22T10:09:45;2.78;;;2.55;;
21589;SDS011;10957;50.968;6.828;2023-06-22T10:14:47;2.47;;;2.38;;
21589;SDS011;10957;50.968;6.828;2023-06-22T10:19:48;2.83;;;2.63;;
21589;SDS011;10957;50.968;6.828;2023-06-22T10:24:49;2.13;;;2.03;;
21589;SDS011;10957;50.968;6.828;2023-06-22T10:29:50;3.22;;;3.03;;
21589;SDS011;10957;50.968;6.828;2023-06-22T10:34:51;2.30;;;2.20;;
21589;SDS011;10957;50.968;6.828;2023-06-22T10:39:53;3.53;;;3.22;;
21589;SDS011;10957;50.968;6.828;2023-06-22T10:44:56;3.13;;;2.92;;
21589;SDS011;10957;50.968;6.828;2023-06-22T10:49:57;3.80;;;3.22;;
21589;SDS011;10957;50.968;6.828;2023-06-22T10:54:58;3.22;;;2.80;;
21589;SDS011;10957;50.968;6.828;2023-06-22T11:00:00;3.38;;;3.08;;
21589;SDS011;10957;50.968;6.828;2023-06-22T11:05:01;3.53;;;3.28;;
21589;SDS011;10957;50.968;6.828;2023-06-22T11:10:04;3.20;;;3.00;;
21589;SDS011;10957;50.968;6.828;2023-06-22T11:15:06;3.78;;;3.58;;
21589;SDS011;10957;50.968;6.828;2023-06-22T11:20:08;4.15;;;3.63;;
21589;SDS011;10957;50.968;6.828;2023-06-22T11:25:11;4.10;;;3.55;;
21589;SDS011;10957;50.968;6.828;2023-06-22T11:30:12;4.32;;;3.80;;
21589;SDS011;10957;50.968;6.828;2023-06-22T11:35:14;3.05;;;2.85;;
21589;SDS011;10957;50.968;6.828;2023-06-22T11:40:15;3.92;;;3.65;;
21589;SDS011;10957;50.968;6.828;2023-06-22T11:45:18;4.13;;;3.67;;
21589;SDS011;10957;50.968;6.828;2023-06-22T11:50:20;4.68;;;4.28;;
21589;SDS011;10957;50.968;6.828;2023-06-22T11:55:21;4.20;;;3.90;;
21589;SDS011;10957;50.968;6.828;2023-06-22T12:00:23;4.43;;;4.03;;
21589;SDS011;10957;50.968;6.828;2023-06-22T12:05:24;7.35;;;3.85;;
21589;SDS011;10957;50.968;6.828;2023-06-22T12:10:26;3.55;;;3.30;;
21589;SDS011;10957;50.968;6.828;2023-06-22T12:15:31;5.18;;;4.88;;
21589;SDS011;10957;50.968;6.828;2023-06-22T12:20:32;3.80;;;3.53;;
21589;SDS011;10957;50.968;6.828;2023-06-22T12:25:33;4.00;;;3.58;;
21589;SDS011;10957;50.968;6.828;2023-06-22T12:30:34;4.60;;;4.22;;
21589;SDS011;10957;50.968;6.828;2023-06-22T12:35:36;4.40;;;3.20;;
21589;SDS011;10957;50.968;6.828;2023-06-22T12:40:37;3.30;;;3.20;;
21589;SDS011;10957;50.968;6.828;2023-06-22T12:45:38;4.60;;;3.95;;
21589;SDS011;10957;50.968;6.828;2023-06-22T12:50:41;4.32;;;3.97;;
21589;SDS011;10957;50.968;6.828;2023-06-22T12:55:42;3.65;;;3.35;;
21589;SDS011;10957;50.968;6.828;2023-06-22T13:00:43;3.65;;;3.45;;
21589;SDS011;10957;50.968;6.828;2023-06-22T13:05:44;3.08;;;2.70;;
21589;SDS011;10957;50.968;6.828;2023-06-22T13:10:46;3.75;;;3.55;;
21589;SDS011;10957;50.968;6.828;2023-06-22T13:15:47;3.92;;;3.63;;
21589;SDS011;10957;50.968;6.828;2023-06-22T13:20:49;2.60;;;2.50;;
21589;SDS011;10957;50.968;6.828;2023-06-22T13:25:50;4.75;;;2.60;;
21589;SDS011;10957;50.968;6.828;2023-06-22T13:30:51;4.07;;;3.63;;
21589;SDS011;10957;50.968;6.828;2023-06-22T13:35:52;3.33;;;3.10;;
21589;SDS011;10957;50.968;6.828;2023-06-22T13:40:54;3.38;;;3.17;;
21589;SDS011;10957;50.968;6.828;2023-06-22T13:45:58;3.78;;;3.47;;
21589;SDS011;10957;50.968;6.828;2023-06-22T13:50:59;4.18;;;3.85;;
21589;SDS011;10957;50.968;6.828;2023-06-22T13:56:01;3.58;;;3.28;;
21589;SDS011;10957;50.968;6.828;2023-06-22T14:01:02;2.60;;;2.50;;
21589;SDS011;10957;50.968;6.828;2023-06-22T14:06:04;2.63;;;2.50;;
21589;SDS011;10957;50.968;6.828;2023-06-22T14:11:06;2.72;;;2.58;;
21589;SDS011;10957;50.968;6.828;2023-06-22T14:16:07;2.40;;;2.30;;
21589;SDS011;10957;50.968;6.828;2023-06-22T14:21:11;2.78;;;2.58;;
21589;SDS011;10957;50.968;6.828;2023-06-22T14:26:14;3.80;;;3.30;;
21589;SDS011;10957;50.968;6.828;2023-06-22T14:31:20;3.00;;;2.80;;
21589;SDS011;10957;50.968;6.828;2023-06-22T14:36:25;3.33;;;3.13;;
21589;SDS011;10957;50.968;6.828;2023-06-22T14:41:26;2.33;;;2.22;;
21589;SDS011;10957;50.968;6.828;2023-06-22T14:46:28;2.83;;;2.60;;
21589;SDS011;10957;50.968;6.828;2023-06-22T14:51:30;3.45;;;3.20;;
21589;SDS011;10957;50.968;6.828;2023-06-22T14:56:31;2.80;;;2.60;;
21589;SDS011;10957;50.968;6.828;2023-06-22T15:01:32;3.42;;;3.03;;
21589;SDS011;10957;50.968;6.828;2023-06-22T15:06:33;2.40;;;2.30;;
21589;SDS011;10957;50.968;6.828;2023-06-22T15:11:36;2.63;;;2.53;;
21589;SDS011;10957;50.968;6.828;2023-06-22T15:16:37;2.65;;;2.45;;
21589;SDS011;10957;50.968;6.828;2023-06-22T15:21:39;2.40;;;2.30;;
21589;SDS011;10957;50.968;6.828;2023-06-22T15:26:40;2.75;;;2.55;;
21589;SDS011;10957;50.968;6.828;2023-06-22T15:31:41;3.83;;;3.45;;
21589;SDS011;10957;50.968;6.828;2023-06-22T15:36:43;3.55;;;3.30;;
21589;SDS011;10957;50.968;6.828;2023-06-22T15:41:45;2.50;;;2.40;;
21589;SDS011;10957;50.968;6.828;2023-06-22T15:46:46;3.17;;;2.97;;
21589;SDS011;10957;50.968;6.828;2023-06-22T15:51:50;3.38;;;3.17;;
21589;SDS011;10957;50.968;6.828;2023-06-22T15:56:52;3.70;;;3.40;;
21589;SDS011;10957;50.968;6.828;2023-06-22T16:01:53;3.92;;;3.60;;
21589;SDS011;10957;50.968;6.828;2023-06-22T16:06:57;2.80;;;2.70;;
21589;SDS011;10957;50.968;6.828;2023-06-22T16:12:02;3.40;;;3.20;;
21589;SDS011;10957;50.968;6.828;2023-06-22T16:17:05;2.60;;;2.50;;
21589;SDS011;10957;50.968;6.828;2023-06-22T16:22:07;3.72;;;3.45;;
21589;SDS011;10957;50.968;6.828;2023-06-22T16:27:08;2.60;;;2.50;;
21589;SDS011;10957;50.968;6.828;2023-06-22T16:32:10;2.78;;;2.67;;
21589;SDS011;10957;50.968;6.828;2023-06-22T16:37:12;3.05;;;2.85;;
21589;SDS011;10957;50.968;6.828;2023-06-22T16:42:13;3.72;;;3.38;;
21589;SDS011;10957;50.968;6.828;2023-06-22T16:47:15;3.30;;;3.10;;
21589;SDS011;10957;50.968;6.828;2023-06-22T16:52:17;3.38;;;3.28;;
21589;SDS011;10957;50.968;6.828;2023-06-22T16:57:18;4.25;;;3.90;;
21589;SDS011;10957;50.968;6.828;2023-06-22T17:02:25;3.40;;;3.30;;
21589;SDS011;10957;50.968;6.828;2023-06-22T17:07:27;3.88;;;3.42;;
21589;SDS011;10957;50.968;6.828;2023-06-22T17:12:31;2.90;;;2.80;;
21589;SDS011;10957;50.968;6.828;2023-06-22T17:17:33;3.15;;;3.05;;
21589;SDS011;10957;50.968;6.828;2023-06-22T17:22:37;4.13;;;3.92;;
21589;SDS011;10957;50.968;6.828;2023-06-22T17:27:39;4.60;;;3.55;;
21589;SDS011;10957;50.968;6.828;2023-06-22T17:32:40;4.50;;;4.20;;
21589;SDS011;10957;50.968;6.828;2023-06-22T17:37:51;4.38;;;4.07;;
21589;SDS011;10957;50.968;6.828;2023-06-22T17:43:03;5.20;;;4.43;;
21589;SDS011;10957;50.968;6.828;2023-06-22T17:48:05;4.10;;;3.80;;
21589;SDS011;10957;50.968;6.828;2023-06-22T17:53:09;5.63;;;5.13;;
21589;SDS011;10957;50.968;6.828;2023-06-22T17:58:11;5.25;;;4.88;;
21589;SDS011;10957;50.968;6.828;2023-06-22T18:03:14;4.45;;;4.25;;
21589;SDS011;10957;50.968;6.828;2023-06-22T18:08:16;5.80;;;5.30;;
21589;SDS011;10957;50.968;6.828;2023-06-22T18:13:25;5.78;;;5.22;;
21589;SDS011;10957;50.968;6.828;2023-06-22T18:18:27;5.10;;;4.70;;
21589;SDS011;10957;50.968;6.828;2023-06-22T18:23:30;5.03;;;4.65;;
21589;SDS011;10957;50.968;6.828;2023-06-22T18:28:36;4.57;;;4.30;;
21589;SDS011;10957;50.968;6.828;2023-06-22T18:33:38;7.57;;;5.47;;
21589;SDS011;10957;50.968;6.828;2023-06-22T18:38:41;4.25;;;3.95;;
21589;SDS011;10957;50.968;6.828;2023-06-22T18:43:43;5.05;;;4.68;;
21589;SDS011;10957;50.968;6.828;2023-06-22T18:48:45;4.13;;;3.92;;
21589;SDS011;10957;50.968;6.828;2023-06-22T18:53:46;6.47;;;5.22;;
21589;SDS011;10957;50.968;6.828;2023-06-22T18:59:03;7.00;;;6.35;;
21589;SDS011;10957;50.968;6.828;2023-06-22T19:04:15;3.53;;;3.42;;
21589;SDS011;10957;50.968;6.828;2023-06-22T19:09:17;3.95;;;3.65;;
21589;SDS011;10957;50.968;6.828;2023-06-22T19:14:20;2.92;;;2.83;;
21589;SDS011;10957;50.968;6.828;2023-06-22T19:19:22;2.85;;;2.75;;
21589;SDS011;10957;50.968;6.828;2023-06-22T19:24:28;2.65;;;2.55;;
21589;SDS011;10957;50.968;6.828;2023-06-22T19:29:52;3.20;;;3.00;;
21589;SDS011;10957;50.968;6.828;2023-06-22T19:34:54;2.75;;;2.65;;
21589;SDS011;10957;50.968;6.828;2023-06-22T19:39:55;2.90;;;2.80;;
21589;SDS011;10957;50.968;6.828;2023-06-22T19:44:57;3.58;;;3.30;;
21589;SDS011;10957;50.968;6.828;2023-06-22T19:49:59;2.78;;;2.67;;
21589;SDS011;10957;50.968;6.828;2023-06-22T19:55:02;3.70;;;3.50;;
21589;SDS011;10957;50.968;6.828;2023-06-22T20:00:04;3.50;;;3.30;;
21589;SDS011;10957;50.968;6.828;2023-06-22T20:05:13;3.72;;;2.95;;
21589;SDS011;10957;50.968;6.828;2023-06-22T20:10:15;3.25;;;3.10;;
21589;SDS011;10957;50.968;6.828;2023-06-22T20:15:20;3.10;;;2.95;;
21589;SDS011;10957;50.968;6.828;2023-06-22T20:20:26;3.03;;;2.92;;
21589;SDS011;10957;50.968;6.828;2023-06-22T20:25:35;3.35;;;3.05;;
21589;SDS011;10957;50.968;6.828;2023-06-22T20:36:07;3.53;;;3.22;;
21589;SDS011;10957;50.968;6.828;2023-06-22T20:41:09;2.67;;;2.58;;
21589;SDS011;10957;50.968;6.828;2023-06-22T20:46:10;3.08;;;2.92;;
21589;SDS011;10957;50.968;6.828;2023-06-22T20:51:11;2.50;;;2.40;;
21589;SDS011;10957;50.968;6.828;2023-06-22T20:56:12;2.85;;;2.67;;
21589;SDS011;10957;50.968;6.828;2023-06-22T21:01:14;3.55;;;3.35;;
21589;SDS011;10957;50.968;6.828;2023-06-22T21:06:18;3.33;;;3.10;;
21589;SDS011;10957;50.968;6.828;2023-06-22T21:11:19;2.50;;;2.40;;
21589;SDS011;10957;50.968;6.828;2023-06-22T21:16:21;3.53;;;3.33;;
21589;SDS011;10957;50.968;6.828;2023-06-22T21:21:22;2.30;;;2.20;;
21589;SDS011;10957;50.968;6.828;2023-06-22T21:26:23;2.67;;;2.58;;
21589;SDS011;10957;50.968;6.828;2023-06-22T21:31:25;3.55;;;3.25;;
21589;SDS011;10957;50.968;6.828;2023-06-22T21:36:26;2.92;;;2.72;;
21589;SDS011;10957;50.968;6.828;2023-06-22T21:41:27;3.90;;;3.35;;
21589;SDS011;10957;50.968;6.828;2023-06-22T21:46:28;2.97;;;2.83;;
21589;SDS011;10957;50.968;6.828;2023-06-22T21:51:30;2.92;;;2.78;;
21589;SDS011;10957;50.968;6.828;2023-06-22T21:56:31;2.78;;;2.67;;
21589;SDS011;10957;50.968;6.828;2023-06-22T22:01:33;3.03;;;2.90;;
21589;SDS011;10957;50.968;6.828;2023-06-22T22:06:34;3.20;;;3.00;;
21589;SDS011;10957;50.968;6.828;2023-06-22T22:11:35;3.08;;;2.97;;
21589;SDS011;10957;50.968;6.828;2023-06-22T22:16:37;3.20;;;3.00;;
21589;SDS011;10957;50.968;6.828;2023-06-22T22:21:38;3.95;;;3.65;;
21589;SDS011;10957;50.968;6.828;2023-06-22T22:26:40;3.75;;;3.55;;
21589;SDS011;10957;50.968;6.828;2023-06-22T22:31:41;3.90;;;3.60;;
21589;SDS011;10957;50.968;6.828;2023-06-22T22:36:42;3.90;;;3.63;;
21589;SDS011;10957;50.968;6.828;2023-06-22T22:41:44;3.65;;;3.45;;
21589;SDS011;10957;50.968;6.828;2023-06-22T22:46:45;3.38;;;3.10;;
21589;SDS011;10957;50.968;6.828;2023-06-22T22:51:46;3.15;;;3.05;;
21589;SDS011;10957;50.968;6.828;2023-06-22T22:56:48;3.13;;;3.00;;
21589;SDS011;10957;50.968;6.828;2023-06-22T23:01:49;4.25;;;3.95;;
21589;SDS011;10957;50.968;6.828;2023-06-22T23:06:50;3.53;;;3.38;;
21589;SDS011;10957;50.968;6.828;2023-06-22T23:11:51;4.13;;;3.92;;
21589;SDS011;10957;50.968;6.828;2023-06-22T23:16:53;3.58;;;3.38;;
21589;SDS011;10957;50.968;6.828;2023-06-22T23:21:57;3.38;;;3.17;;
21589;SDS011;10957;50.968;6.828;2023-06-22T23:26:58;3.70;;;3.40;;
21589;SDS011;10957;50.968;6.828;2023-06-22T23:31:59;3.85;;;3.63;;
21589;SDS011;10957;50.968;6.828;2023-06-22T23:37:01;5.45;;;4.82;;
21589;SDS011;10957;50.968;6.828;2023-06-22T23:42:04;3.75;;;3.55;;
21589;SDS011;10957;50.968;6.828;2023-06-22T23:47:05;6.78;;;3.55;;
21589;SDS011;10957;50.968;6.828;2023-06-22T23:52:07;4.85;;;4.55;;
21589;SDS011;10957;50.968;6.828;2023-06-22T23:57:08;3.30;;;3.20;;
